sensor_id;sensor_type;location;lat;lon;timestamp;P1;durP1;ratioP1;P2;durP2;ratioP2
10588;SDS011;5342;55.676;13.346;2022-08-01T00:02:18;2.23;;;1.60;;
10588;SDS011;5342;55.676;13.346;2022-08-01T00:04:44;1.80;;;1.40;;
10588;SDS011;5342;55.676;13.346;2022-08-01T00:07:11;2.23;;;1.80;;
10588;SDS011;5342;55.676;13.346;2022-08-01T00:09:37;4.50;;;2.00;;
10588;SDS011;5342;55.676;13.346;2022-08-01T00:12:04;2.43;;;2.07;;
10588;SDS011;5342;55.676;13.346;2022-08-01T00:14:31;2.13;;;1.53;;
10588;SDS011;5342;55.676;13.346;2022-08-01T00:16:57;4.23;;;1.60;;
10588;SDS011;5342;55.676;13.346;2022-08-01T00:19:24;2.03;;;1.60;;
10588;SDS011;5342;55.676;13.346;2022-08-01T00:21:50;1.83;;;0.97;;
10588;SDS011;5342;55.676;13.346;2022-08-01T00:24:17;1.80;;;1.10;;
10588;SDS011;5342;55.676;13.346;2022-08-01T00:26:43;1.13;;;1.10;;
10588;SDS011;5342;55.676;13.346;2022-08-01T00:29:10;1.43;;;1.10;;
10588;SDS011;5342;55.676;13.346;2022-08-01T00:31:36;1.43;;;1.10;;
10588;SDS011;5342;55.676;13.346;2022-08-01T00:34:03;3.17;;;1.20;;
10588;SDS011;5342;55.676;13.346;2022-08-01T00:36:29;2.80;;;1.40;;
10588;SDS011;5342;55.676;13.346;2022-08-01T00:38:56;1.40;;;1.30;;
10588;SDS011;5342;55.676;13.346;2022-08-01T00:41:22;2.50;;;1.40;;
10588;SDS011;5342;55.676;13.346;2022-08-01T00:43:49;1.40;;;1.30;;
10588;SDS011;5342;55.676;13.346;2022-08-01T00:46:16;3.97;;;2.13;;
10588;SDS011;5342;55.676;13.346;2022-08-01T00:48:42;1.80;;;1.70;;
10588;SDS011;5342;55.676;13.346;2022-08-01T00:51:09;3.23;;;1.53;;
10588;SDS011;5342;55.676;13.346;2022-08-01T00:53:35;1.87;;;1.77;;
10588;SDS011;5342;55.676;13.346;2022-08-01T00:56:02;1.90;;;1.70;;
10588;SDS011;5342;55.676;13.346;2022-08-01T00:58:29;2.80;;;2.07;;
10588;SDS011;5342;55.676;13.346;2022-08-01T01:00:58;2.50;;;1.77;;
10588;SDS011;5342;55.676;13.346;2022-08-01T01:03:24;1.90;;;1.70;;
10588;SDS011;5342;55.676;13.346;2022-08-01T01:06:14;4.47;;;1.97;;
10588;SDS011;5342;55.676;13.346;2022-08-01T01:08:46;2.30;;;1.90;;
10588;SDS011;5342;55.676;13.346;2022-08-01T01:11:23;2.30;;;1.60;;
10588;SDS011;5342;55.676;13.346;2022-08-01T01:13:57;3.27;;;1.87;;
10588;SDS011;5342;55.676;13.346;2022-08-01T01:16:26;2.30;;;1.90;;
10588;SDS011;5342;55.676;13.346;2022-08-01T01:19:01;2.50;;;2.00;;
10588;SDS011;5342;55.676;13.346;2022-08-01T01:31:36;2.73;;;2.00;;
10588;SDS011;5342;55.676;13.346;2022-08-01T01:34:05;1.80;;;1.70;;
10588;SDS011;5342;55.676;13.346;2022-08-01T01:36:33;3.53;;;2.10;;
10588;SDS011;5342;55.676;13.346;2022-08-01T01:39:02;3.50;;;1.83;;
10588;SDS011;5342;55.676;13.346;2022-08-01T01:41:28;2.23;;;2.00;;
10588;SDS011;5342;55.676;13.346;2022-08-01T01:43:56;2.40;;;2.20;;
10588;SDS011;5342;55.676;13.346;2022-08-01T01:46:24;3.63;;;2.10;;
10588;SDS011;5342;55.676;13.346;2022-08-01T01:48:53;3.53;;;1.93;;
10588;SDS011;5342;55.676;13.346;2022-08-01T01:51:20;2.30;;;2.00;;
10588;SDS011;5342;55.676;13.346;2022-08-01T01:53:48;3.30;;;2.20;;
10588;SDS011;5342;55.676;13.346;2022-08-01T01:56:14;3.13;;;2.83;;
10588;SDS011;5342;55.676;13.346;2022-08-01T01:58:42;4.67;;;2.67;;
10588;SDS011;5342;55.676;13.346;2022-08-01T02:01:09;3.43;;;2.50;;
10588;SDS011;5342;55.676;13.346;2022-08-01T02:03:37;2.87;;;2.10;;
10588;SDS011;5342;55.676;13.346;2022-08-01T02:06:06;3.10;;;2.40;;
10588;SDS011;5342;55.676;13.346;2022-08-01T02:08:34;2.90;;;2.17;;
10588;SDS011;5342;55.676;13.346;2022-08-01T02:11:01;2.67;;;2.47;;
10588;SDS011;5342;55.676;13.346;2022-08-01T02:13:45;2.87;;;2.30;;
10588;SDS011;5342;55.676;13.346;2022-08-01T02:16:12;2.50;;;2.30;;
10588;SDS011;5342;55.676;13.346;2022-08-01T02:18:40;2.60;;;2.33;;
10588;SDS011;5342;55.676;13.346;2022-08-01T02:21:08;2.60;;;2.40;;
10588;SDS011;5342;55.676;13.346;2022-08-01T02:23:37;4.67;;;2.60;;
10588;SDS011;5342;55.676;13.346;2022-08-01T02:26:07;2.80;;;2.60;;
10588;SDS011;5342;55.676;13.346;2022-08-01T02:28:36;2.87;;;2.67;;
10588;SDS011;5342;55.676;13.346;2022-08-01T02:31:04;3.90;;;3.30;;
10588;SDS011;5342;55.676;13.346;2022-08-01T02:33:39;3.43;;;3.03;;
10588;SDS011;5342;55.676;13.346;2022-08-01T02:36:06;3.40;;;3.10;;
10588;SDS011;5342;55.676;13.346;2022-08-01T02:38:35;3.73;;;3.30;;
10588;SDS011;5342;55.676;13.346;2022-08-01T02:41:07;3.20;;;2.90;;
10588;SDS011;5342;55.676;13.346;2022-08-01T02:43:35;3.23;;;2.93;;
10588;SDS011;5342;55.676;13.346;2022-08-01T02:46:02;3.93;;;2.97;;
10588;SDS011;5342;55.676;13.346;2022-08-01T02:48:30;3.17;;;2.87;;
10588;SDS011;5342;55.676;13.346;2022-08-01T02:50:59;2.90;;;2.60;;
10588;SDS011;5342;55.676;13.346;2022-08-01T02:53:27;2.40;;;2.20;;
10588;SDS011;5342;55.676;13.346;2022-08-01T02:55:57;3.03;;;2.73;;
10588;SDS011;5342;55.676;13.346;2022-08-01T02:58:24;11.33;;;3.27;;
10588;SDS011;5342;55.676;13.346;2022-08-01T03:00:51;3.97;;;3.53;;
10588;SDS011;5342;55.676;13.346;2022-08-01T03:03:18;5.13;;;3.40;;
10588;SDS011;5342;55.676;13.346;2022-08-01T03:05:45;3.47;;;2.97;;
10588;SDS011;5342;55.676;13.346;2022-08-01T03:08:12;4.10;;;3.70;;
10588;SDS011;5342;55.676;13.346;2022-08-01T03:10:40;3.73;;;3.40;;
10588;SDS011;5342;55.676;13.346;2022-08-01T03:13:08;4.13;;;3.72;;
10588;SDS011;5342;55.676;13.346;2022-08-01T03:15:37;3.73;;;3.03;;
10588;SDS011;5342;55.676;13.346;2022-08-01T03:18:05;4.27;;;3.30;;
10588;SDS011;5342;55.676;13.346;2022-08-01T03:20:32;3.73;;;3.00;;
10588;SDS011;5342;55.676;13.346;2022-08-01T03:22:59;3.73;;;3.40;;
10588;SDS011;5342;55.676;13.346;2022-08-01T03:25:27;4.43;;;3.50;;
10588;SDS011;5342;55.676;13.346;2022-08-01T03:27:55;3.77;;;3.37;;
10588;SDS011;5342;55.676;13.346;2022-08-01T03:30:23;4.80;;;3.43;;
10588;SDS011;5342;55.676;13.346;2022-08-01T03:32:51;4.13;;;3.63;;
10588;SDS011;5342;55.676;13.346;2022-08-01T03:35:18;3.80;;;3.27;;
10588;SDS011;5342;55.676;13.346;2022-08-01T03:37:46;3.40;;;2.70;;
10588;SDS011;5342;55.676;13.346;2022-08-01T03:40:17;3.00;;;2.70;;
10588;SDS011;5342;55.676;13.346;2022-08-01T03:42:47;4.37;;;2.80;;
10588;SDS011;5342;55.676;13.346;2022-08-01T03:45:15;3.93;;;2.93;;
10588;SDS011;5342;55.676;13.346;2022-08-01T03:47:45;2.93;;;2.53;;
10588;SDS011;5342;55.676;13.346;2022-08-01T03:50:13;2.83;;;2.43;;
10588;SDS011;5342;55.676;13.346;2022-08-01T03:52:41;4.70;;;3.07;;
10588;SDS011;5342;55.676;13.346;2022-08-01T03:55:08;3.00;;;2.70;;
10588;SDS011;5342;55.676;13.346;2022-08-01T03:57:36;3.07;;;2.70;;
10588;SDS011;5342;55.676;13.346;2022-08-01T04:00:04;2.63;;;2.43;;
10588;SDS011;5342;55.676;13.346;2022-08-01T04:02:33;3.30;;;2.37;;
10588;SDS011;5342;55.676;13.346;2022-08-01T04:05:00;3.40;;;2.33;;
10588;SDS011;5342;55.676;13.346;2022-08-01T04:07:29;4.17;;;2.00;;
10588;SDS011;5342;55.676;13.346;2022-08-01T04:09:55;5.67;;;2.77;;
10588;SDS011;5342;55.676;13.346;2022-08-01T04:12:22;2.97;;;2.60;;
10588;SDS011;5342;55.676;13.346;2022-08-01T04:14:49;4.97;;;3.00;;
10588;SDS011;5342;55.676;13.346;2022-08-01T04:17:16;3.67;;;3.20;;
10588;SDS011;5342;55.676;13.346;2022-08-01T04:19:43;4.57;;;4.00;;
10588;SDS011;5342;55.676;13.346;2022-08-01T04:22:11;4.73;;;4.17;;
10588;SDS011;5342;55.676;13.346;2022-08-01T04:24:38;5.23;;;4.20;;
10588;SDS011;5342;55.676;13.346;2022-08-01T04:27:06;6.80;;;5.20;;
10588;SDS011;5342;55.676;13.346;2022-08-01T04:29:35;6.37;;;5.00;;
10588;SDS011;5342;55.676;13.346;2022-08-01T04:32:02;6.57;;;5.67;;
10588;SDS011;5342;55.676;13.346;2022-08-01T04:34:30;8.07;;;5.13;;
10588;SDS011;5342;55.676;13.346;2022-08-01T04:36:58;8.77;;;5.50;;
10588;SDS011;5342;55.676;13.346;2022-08-01T04:39:26;8.53;;;6.23;;
10588;SDS011;5342;55.676;13.346;2022-08-01T04:41:53;8.70;;;6.60;;
10588;SDS011;5342;55.676;13.346;2022-08-01T04:44:24;9.43;;;6.80;;
10588;SDS011;5342;55.676;13.346;2022-08-01T04:46:52;7.87;;;6.77;;
10588;SDS011;5342;55.676;13.346;2022-08-01T04:49:20;10.50;;;7.13;;
10588;SDS011;5342;55.676;13.346;2022-08-01T04:51:53;9.47;;;7.03;;
10588;SDS011;5342;55.676;13.346;2022-08-01T04:54:33;8.37;;;7.57;;
10588;SDS011;5342;55.676;13.346;2022-08-01T04:57:02;8.03;;;6.83;;
10588;SDS011;5342;55.676;13.346;2022-08-01T04:59:29;9.03;;;7.30;;
10588;SDS011;5342;55.676;13.346;2022-08-01T05:02:16;10.97;;;6.93;;
10588;SDS011;5342;55.676;13.346;2022-08-01T05:04:43;7.40;;;6.70;;
10588;SDS011;5342;55.676;13.346;2022-08-01T05:07:10;8.93;;;6.67;;
10588;SDS011;5342;55.676;13.346;2022-08-01T05:09:38;9.27;;;7.70;;
10588;SDS011;5342;55.676;13.346;2022-08-01T05:12:06;8.47;;;7.50;;
10588;SDS011;5342;55.676;13.346;2022-08-01T05:14:34;8.53;;;7.63;;
10588;SDS011;5342;55.676;13.346;2022-08-01T05:17:01;7.73;;;6.93;;
10588;SDS011;5342;55.676;13.346;2022-08-01T05:19:30;7.57;;;6.87;;
10588;SDS011;5342;55.676;13.346;2022-08-01T05:22:03;7.43;;;6.73;;
10588;SDS011;5342;55.676;13.346;2022-08-01T05:24:33;10.20;;;7.93;;
10588;SDS011;5342;55.676;13.346;2022-08-01T05:26:59;12.43;;;6.93;;
10588;SDS011;5342;55.676;13.346;2022-08-01T05:29:26;6.67;;;6.07;;
10588;SDS011;5342;55.676;13.346;2022-08-01T05:31:53;8.27;;;6.60;;
10588;SDS011;5342;55.676;13.346;2022-08-01T05:34:19;9.17;;;7.30;;
10588;SDS011;5342;55.676;13.346;2022-08-01T05:36:46;11.13;;;7.17;;
10588;SDS011;5342;55.676;13.346;2022-08-01T05:39:13;8.90;;;7.57;;
10588;SDS011;5342;55.676;13.346;2022-08-01T05:41:40;7.33;;;6.70;;
10588;SDS011;5342;55.676;13.346;2022-08-01T05:44:07;9.40;;;6.83;;
10588;SDS011;5342;55.676;13.346;2022-08-01T05:46:34;8.63;;;6.90;;
10588;SDS011;5342;55.676;13.346;2022-08-01T05:49:01;8.43;;;7.47;;
10588;SDS011;5342;55.676;13.346;2022-08-01T05:51:28;9.63;;;7.70;;
10588;SDS011;5342;55.676;13.346;2022-08-01T05:53:55;8.07;;;7.27;;
10588;SDS011;5342;55.676;13.346;2022-08-01T05:56:21;8.77;;;7.17;;
10588;SDS011;5342;55.676;13.346;2022-08-01T05:58:48;10.37;;;7.30;;
10588;SDS011;5342;55.676;13.346;2022-08-01T06:01:16;8.60;;;7.70;;
10588;SDS011;5342;55.676;13.346;2022-08-01T06:03:43;9.07;;;7.83;;
10588;SDS011;5342;55.676;13.346;2022-08-01T06:06:09;7.43;;;6.47;;
10588;SDS011;5342;55.676;13.346;2022-08-01T06:08:36;10.57;;;7.43;;
10588;SDS011;5342;55.676;13.346;2022-08-01T06:11:02;8.00;;;7.27;;
10588;SDS011;5342;55.676;13.346;2022-08-01T06:13:29;10.03;;;7.67;;
10588;SDS011;5342;55.676;13.346;2022-08-01T06:15:55;8.63;;;7.73;;
10588;SDS011;5342;55.676;13.346;2022-08-01T06:18:23;10.23;;;7.50;;
10588;SDS011;5342;55.676;13.346;2022-08-01T06:20:49;10.73;;;7.80;;
10588;SDS011;5342;55.676;13.346;2022-08-01T06:23:16;9.47;;;7.10;;
10588;SDS011;5342;55.676;13.346;2022-08-01T06:25:43;8.23;;;7.37;;
10588;SDS011;5342;55.676;13.346;2022-08-01T06:28:09;9.60;;;6.87;;
10588;SDS011;5342;55.676;13.346;2022-08-01T06:30:36;9.37;;;7.43;;
10588;SDS011;5342;55.676;13.346;2022-08-01T06:33:02;10.00;;;7.30;;
10588;SDS011;5342;55.676;13.346;2022-08-01T06:35:30;7.60;;;6.90;;
10588;SDS011;5342;55.676;13.346;2022-08-01T06:37:57;8.07;;;6.73;;
10588;SDS011;5342;55.676;13.346;2022-08-01T06:40:23;8.37;;;7.30;;
10588;SDS011;5342;55.676;13.346;2022-08-01T06:42:50;9.03;;;6.83;;
10588;SDS011;5342;55.676;13.346;2022-08-01T06:45:17;7.77;;;6.67;;
10588;SDS011;5342;55.676;13.346;2022-08-01T06:47:44;7.50;;;6.67;;
10588;SDS011;5342;55.676;13.346;2022-08-01T06:50:11;7.10;;;6.50;;
10588;SDS011;5342;55.676;13.346;2022-08-01T06:52:39;8.83;;;7.03;;
10588;SDS011;5342;55.676;13.346;2022-08-01T06:55:06;7.90;;;6.97;;
10588;SDS011;5342;55.676;13.346;2022-08-01T06:57:33;7.80;;;6.90;;
10588;SDS011;5342;55.676;13.346;2022-08-01T07:00:01;8.70;;;6.17;;
10588;SDS011;5342;55.676;13.346;2022-08-01T07:02:28;6.53;;;5.27;;
10588;SDS011;5342;55.676;13.346;2022-08-01T07:04:54;7.83;;;6.17;;
10588;SDS011;5342;55.676;13.346;2022-08-01T07:07:23;6.30;;;5.67;;
10588;SDS011;5342;55.676;13.346;2022-08-01T07:09:49;5.40;;;4.90;;
10588;SDS011;5342;55.676;13.346;2022-08-01T07:12:16;6.73;;;5.47;;
10588;SDS011;5342;55.676;13.346;2022-08-01T07:14:42;5.10;;;4.67;;
10588;SDS011;5342;55.676;13.346;2022-08-01T07:17:09;5.80;;;5.17;;
10588;SDS011;5342;55.676;13.346;2022-08-01T07:19:36;7.63;;;6.00;;
10588;SDS011;5342;55.676;13.346;2022-08-01T07:22:02;6.23;;;5.50;;
10588;SDS011;5342;55.676;13.346;2022-08-01T07:24:29;5.37;;;4.87;;
10588;SDS011;5342;55.676;13.346;2022-08-01T07:26:56;5.17;;;4.67;;
10588;SDS011;5342;55.676;13.346;2022-08-01T07:29:23;8.03;;;5.37;;
10588;SDS011;5342;55.676;13.346;2022-08-01T07:31:53;7.33;;;5.97;;
10588;SDS011;5342;55.676;13.346;2022-08-01T07:34:20;6.80;;;5.50;;
10588;SDS011;5342;55.676;13.346;2022-08-01T07:36:47;5.10;;;4.57;;
10588;SDS011;5342;55.676;13.346;2022-08-01T07:39:14;5.90;;;5.23;;
10588;SDS011;5342;55.676;13.346;2022-08-01T07:41:40;6.90;;;4.70;;
10588;SDS011;5342;55.676;13.346;2022-08-01T07:44:07;5.50;;;5.00;;
10588;SDS011;5342;55.676;13.346;2022-08-01T07:46:33;5.63;;;5.07;;
10588;SDS011;5342;55.676;13.346;2022-08-01T07:49:00;4.87;;;4.30;;
10588;SDS011;5342;55.676;13.346;2022-08-01T07:51:27;5.07;;;4.60;;
10588;SDS011;5342;55.676;13.346;2022-08-01T07:53:53;6.93;;;4.90;;
10588;SDS011;5342;55.676;13.346;2022-08-01T07:56:20;9.40;;;5.17;;
10588;SDS011;5342;55.676;13.346;2022-08-01T07:58:49;6.50;;;5.13;;
10588;SDS011;5342;55.676;13.346;2022-08-01T08:01:16;5.03;;;4.50;;
10588;SDS011;5342;55.676;13.346;2022-08-01T08:03:43;5.27;;;4.77;;
10588;SDS011;5342;55.676;13.346;2022-08-01T08:06:09;4.83;;;4.13;;
10588;SDS011;5342;55.676;13.346;2022-08-01T08:08:36;5.53;;;5.03;;
10588;SDS011;5342;55.676;13.346;2022-08-01T08:11:03;5.93;;;4.40;;
10588;SDS011;5342;55.676;13.346;2022-08-01T08:13:29;5.43;;;4.23;;
10588;SDS011;5342;55.676;13.346;2022-08-01T08:15:56;5.63;;;4.07;;
10588;SDS011;5342;55.676;13.346;2022-08-01T08:18:24;4.00;;;3.60;;
10588;SDS011;5342;55.676;13.346;2022-08-01T08:20:50;3.53;;;3.10;;
10588;SDS011;5342;55.676;13.346;2022-08-01T08:23:17;3.57;;;3.30;;
10588;SDS011;5342;55.676;13.346;2022-08-01T08:26:02;4.13;;;3.70;;
10588;SDS011;5342;55.676;13.346;2022-08-01T08:28:29;4.60;;;3.30;;
10588;SDS011;5342;55.676;13.346;2022-08-01T08:30:55;4.03;;;3.60;;
10588;SDS011;5342;55.676;13.346;2022-08-01T08:33:22;5.80;;;3.43;;
10588;SDS011;5342;55.676;13.346;2022-08-01T08:35:49;5.73;;;3.80;;
10588;SDS011;5342;55.676;13.346;2022-08-01T08:38:15;6.87;;;3.47;;
10588;SDS011;5342;55.676;13.346;2022-08-01T08:40:42;4.17;;;3.53;;
10588;SDS011;5342;55.676;13.346;2022-08-01T08:43:08;4.77;;;4.27;;
10588;SDS011;5342;55.676;13.346;2022-08-01T08:45:35;4.47;;;4.07;;
10588;SDS011;5342;55.676;13.346;2022-08-01T08:48:02;11.70;;;4.73;;
10588;SDS011;5342;55.676;13.346;2022-08-01T08:50:30;4.57;;;3.93;;
10588;SDS011;5342;55.676;13.346;2022-08-01T08:52:56;6.10;;;5.50;;
10588;SDS011;5342;55.676;13.346;2022-08-01T08:55:25;6.47;;;5.00;;
10588;SDS011;5342;55.676;13.346;2022-08-01T08:57:52;5.20;;;4.80;;
10588;SDS011;5342;55.676;13.346;2022-08-01T09:00:19;4.77;;;4.37;;
10588;SDS011;5342;55.676;13.346;2022-08-01T09:02:46;5.90;;;4.47;;
10588;SDS011;5342;55.676;13.346;2022-08-01T09:05:14;4.73;;;3.97;;
10588;SDS011;5342;55.676;13.346;2022-08-01T09:07:42;5.83;;;4.47;;
10588;SDS011;5342;55.676;13.346;2022-08-01T09:10:09;5.23;;;4.73;;
10588;SDS011;5342;55.676;13.346;2022-08-01T09:12:36;8.20;;;5.17;;
10588;SDS011;5342;55.676;13.346;2022-08-01T09:15:03;5.50;;;4.73;;
10588;SDS011;5342;55.676;13.346;2022-08-01T09:17:38;5.50;;;5.00;;
10588;SDS011;5342;55.676;13.346;2022-08-01T09:20:05;5.53;;;4.97;;
10588;SDS011;5342;55.676;13.346;2022-08-01T09:22:32;5.63;;;5.03;;
10588;SDS011;5342;55.676;13.346;2022-08-01T09:27:26;4.97;;;4.40;;
10588;SDS011;5342;55.676;13.346;2022-08-01T09:29:53;5.97;;;4.77;;
10588;SDS011;5342;55.676;13.346;2022-08-01T09:32:20;7.87;;;6.80;;
10588;SDS011;5342;55.676;13.346;2022-08-01T09:34:47;9.37;;;7.20;;
10588;SDS011;5342;55.676;13.346;2022-08-01T09:37:13;8.10;;;6.67;;
10588;SDS011;5342;55.676;13.346;2022-08-01T09:39:43;7.60;;;6.80;;
10588;SDS011;5342;55.676;13.346;2022-08-01T09:42:24;7.03;;;6.33;;
10588;SDS011;5342;55.676;13.346;2022-08-01T09:44:51;5.87;;;5.37;;
10588;SDS011;5342;55.676;13.346;2022-08-01T09:47:18;6.80;;;6.20;;
10588;SDS011;5342;55.676;13.346;2022-08-01T09:49:53;8.40;;;5.60;;
10588;SDS011;5342;55.676;13.346;2022-08-01T09:52:21;6.93;;;5.40;;
10588;SDS011;5342;55.676;13.346;2022-08-01T09:55:06;5.33;;;4.80;;
10588;SDS011;5342;55.676;13.346;2022-08-01T09:57:32;4.10;;;3.70;;
10588;SDS011;5342;55.676;13.346;2022-08-01T10:00:00;3.73;;;3.30;;
10588;SDS011;5342;55.676;13.346;2022-08-01T10:02:34;3.80;;;3.50;;
10588;SDS011;5342;55.676;13.346;2022-08-01T10:05:02;4.87;;;4.40;;
10588;SDS011;5342;55.676;13.346;2022-08-01T10:07:28;4.60;;;4.20;;
10588;SDS011;5342;55.676;13.346;2022-08-01T10:09:55;7.17;;;4.67;;
10588;SDS011;5342;55.676;13.346;2022-08-01T10:12:22;4.30;;;3.90;;
10588;SDS011;5342;55.676;13.346;2022-08-01T10:14:50;4.30;;;3.90;;
10588;SDS011;5342;55.676;13.346;2022-08-01T10:17:20;4.60;;;4.30;;
10588;SDS011;5342;55.676;13.346;2022-08-01T10:19:50;4.50;;;4.10;;
10588;SDS011;5342;55.676;13.346;2022-08-01T10:22:20;6.17;;;4.30;;
10588;SDS011;5342;55.676;13.346;2022-08-01T10:24:50;6.80;;;3.63;;
10588;SDS011;5342;55.676;13.346;2022-08-01T10:27:17;3.97;;;3.67;;
10588;SDS011;5342;55.676;13.346;2022-08-01T10:30:00;3.50;;;3.30;;
10588;SDS011;5342;55.676;13.346;2022-08-01T10:32:29;3.87;;;3.23;;
10588;SDS011;5342;55.676;13.346;2022-08-01T10:34:56;3.90;;;3.47;;
10588;SDS011;5342;55.676;13.346;2022-08-01T10:37:23;6.27;;;3.87;;
10588;SDS011;5342;55.676;13.346;2022-08-01T10:39:50;4.70;;;4.30;;
10588;SDS011;5342;55.676;13.346;2022-08-01T10:42:17;4.87;;;4.40;;
10588;SDS011;5342;55.676;13.346;2022-08-01T10:44:44;5.53;;;5.03;;
10588;SDS011;5342;55.676;13.346;2022-08-01T10:47:15;6.70;;;6.03;;
10588;SDS011;5342;55.676;13.346;2022-08-01T10:49:58;7.40;;;6.50;;
10588;SDS011;5342;55.676;13.346;2022-08-01T10:52:28;8.23;;;6.20;;
10588;SDS011;5342;55.676;13.346;2022-08-01T10:55:02;8.87;;;6.50;;
10588;SDS011;5342;55.676;13.346;2022-08-01T10:57:44;7.80;;;6.20;;
10588;SDS011;5342;55.676;13.346;2022-08-01T11:00:18;9.17;;;7.13;;
10588;SDS011;5342;55.676;13.346;2022-08-01T11:02:58;8.43;;;7.07;;
10588;SDS011;5342;55.676;13.346;2022-08-01T11:05:27;8.80;;;7.13;;
10588;SDS011;5342;55.676;13.346;2022-08-01T11:07:54;10.13;;;7.10;;
10588;SDS011;5342;55.676;13.346;2022-08-01T11:12:53;8.33;;;6.50;;
10588;SDS011;5342;55.676;13.346;2022-08-01T11:15:21;7.47;;;6.17;;
10588;SDS011;5342;55.676;13.346;2022-08-01T11:17:51;6.93;;;6.33;;
10588;SDS011;5342;55.676;13.346;2022-08-01T11:20:22;7.50;;;5.57;;
10588;SDS011;5342;55.676;13.346;2022-08-01T11:30:54;8.43;;;7.63;;
10588;SDS011;5342;55.676;13.346;2022-08-01T11:57:13;12.30;;;10.37;;
10588;SDS011;5342;55.676;13.346;2022-08-01T11:59:44;11.93;;;10.83;;
10588;SDS011;5342;55.676;13.346;2022-08-01T12:02:15;11.57;;;9.63;;
10588;SDS011;5342;55.676;13.346;2022-08-01T12:07:40;8.97;;;7.67;;
10588;SDS011;5342;55.676;13.346;2022-08-01T12:10:08;6.70;;;5.93;;
10588;SDS011;5342;55.676;13.346;2022-08-01T12:12:35;6.53;;;5.80;;
10588;SDS011;5342;55.676;13.346;2022-08-01T12:15:06;6.57;;;5.30;;
10588;SDS011;5342;55.676;13.346;2022-08-01T12:17:37;6.77;;;4.93;;
10588;SDS011;5342;55.676;13.346;2022-08-01T12:20:05;7.83;;;5.40;;
10588;SDS011;5342;55.676;13.346;2022-08-01T12:22:32;15.07;;;5.07;;
10588;SDS011;5342;55.676;13.346;2022-08-01T12:25:06;6.53;;;4.50;;
10588;SDS011;5342;55.676;13.346;2022-08-01T12:27:33;8.23;;;4.50;;
10588;SDS011;5342;55.676;13.346;2022-08-01T12:29:59;8.20;;;3.97;;
10588;SDS011;5342;55.676;13.346;2022-08-01T12:32:33;7.43;;;4.50;;
10588;SDS011;5342;55.676;13.346;2022-08-01T12:35:03;7.23;;;3.80;;
10588;SDS011;5342;55.676;13.346;2022-08-01T12:37:30;7.40;;;3.90;;
10588;SDS011;5342;55.676;13.346;2022-08-01T12:39:57;9.40;;;4.10;;
10588;SDS011;5342;55.676;13.346;2022-08-01T12:42:23;6.73;;;4.00;;
10588;SDS011;5342;55.676;13.346;2022-08-01T12:44:51;8.10;;;3.70;;
10588;SDS011;5342;55.676;13.346;2022-08-01T12:47:18;8.27;;;3.43;;
10588;SDS011;5342;55.676;13.346;2022-08-01T12:49:45;7.20;;;3.43;;
10588;SDS011;5342;55.676;13.346;2022-08-01T12:52:13;6.53;;;2.87;;
10588;SDS011;5342;55.676;13.346;2022-08-01T12:54:59;16.00;;;7.63;;
10588;SDS011;5342;55.676;13.346;2022-08-01T12:57:25;4.83;;;2.90;;
10588;SDS011;5342;55.676;13.346;2022-08-01T12:59:52;3.50;;;2.20;;
10588;SDS011;5342;55.676;13.346;2022-08-01T13:02:19;7.73;;;2.00;;
10588;SDS011;5342;55.676;13.346;2022-08-01T13:04:49;8.80;;;2.50;;
10588;SDS011;5342;55.676;13.346;2022-08-01T13:07:18;6.37;;;2.27;;
10588;SDS011;5342;55.676;13.346;2022-08-01T13:09:51;6.30;;;2.30;;
10588;SDS011;5342;55.676;13.346;2022-08-01T13:12:18;4.63;;;1.80;;
10588;SDS011;5342;55.676;13.346;2022-08-01T13:14:44;10.03;;;2.37;;
10588;SDS011;5342;55.676;13.346;2022-08-01T13:17:11;6.60;;;2.03;;
10588;SDS011;5342;55.676;13.346;2022-08-01T13:19:44;4.67;;;1.90;;
10588;SDS011;5342;55.676;13.346;2022-08-01T13:22:10;9.80;;;2.43;;
10588;SDS011;5342;55.676;13.346;2022-08-01T13:24:37;9.33;;;3.03;;
10588;SDS011;5342;55.676;13.346;2022-08-01T13:27:04;8.37;;;2.23;;
10588;SDS011;5342;55.676;13.346;2022-08-01T13:32:21;4.57;;;1.70;;
10588;SDS011;5342;55.676;13.346;2022-08-01T13:34:47;5.33;;;1.93;;
10588;SDS011;5342;55.676;13.346;2022-08-01T13:37:13;4.27;;;1.70;;
10588;SDS011;5342;55.676;13.346;2022-08-01T13:39:43;6.63;;;2.07;;
10588;SDS011;5342;55.676;13.346;2022-08-01T13:42:11;4.03;;;1.80;;
10588;SDS011;5342;55.676;13.346;2022-08-01T13:44:38;5.00;;;1.50;;
10588;SDS011;5342;55.676;13.346;2022-08-01T13:47:05;5.60;;;1.80;;
10588;SDS011;5342;55.676;13.346;2022-08-01T13:49:31;3.93;;;1.30;;
10588;SDS011;5342;55.676;13.346;2022-08-01T13:51:59;3.43;;;1.60;;
10588;SDS011;5342;55.676;13.346;2022-08-01T13:54:25;3.87;;;1.40;;
10588;SDS011;5342;55.676;13.346;2022-08-01T13:56:52;3.30;;;1.60;;
10588;SDS011;5342;55.676;13.346;2022-08-01T13:59:19;7.30;;;1.93;;
10588;SDS011;5342;55.676;13.346;2022-08-01T14:01:46;4.27;;;1.60;;
10588;SDS011;5342;55.676;13.346;2022-08-01T14:04:13;4.00;;;1.43;;
10588;SDS011;5342;55.676;13.346;2022-08-01T14:06:39;4.13;;;1.60;;
10588;SDS011;5342;55.676;13.346;2022-08-01T14:09:06;3.53;;;1.60;;
10588;SDS011;5342;55.676;13.346;2022-08-01T14:11:33;5.00;;;1.70;;
10588;SDS011;5342;55.676;13.346;2022-08-01T14:13:59;4.23;;;1.87;;
10588;SDS011;5342;55.676;13.346;2022-08-01T14:16:26;4.57;;;1.53;;
10588;SDS011;5342;55.676;13.346;2022-08-01T14:18:53;5.97;;;1.63;;
10588;SDS011;5342;55.676;13.346;2022-08-01T14:21:19;4.80;;;1.67;;
10588;SDS011;5342;55.676;13.346;2022-08-01T14:23:46;3.83;;;1.50;;
10588;SDS011;5342;55.676;13.346;2022-08-01T14:26:12;4.97;;;1.80;;
10588;SDS011;5342;55.676;13.346;2022-08-01T14:28:39;4.33;;;1.53;;
10588;SDS011;5342;55.676;13.346;2022-08-01T14:31:05;5.90;;;2.07;;
10588;SDS011;5342;55.676;13.346;2022-08-01T14:33:33;4.00;;;1.53;;
10588;SDS011;5342;55.676;13.346;2022-08-01T14:36:00;5.17;;;1.67;;
10588;SDS011;5342;55.676;13.346;2022-08-01T14:38:26;7.40;;;2.43;;
10588;SDS011;5342;55.676;13.346;2022-08-01T14:40:53;5.37;;;1.60;;
10588;SDS011;5342;55.676;13.346;2022-08-01T14:43:20;5.07;;;1.70;;
10588;SDS011;5342;55.676;13.346;2022-08-01T14:45:47;4.67;;;2.00;;
10588;SDS011;5342;55.676;13.346;2022-08-01T14:48:16;7.13;;;1.57;;
10588;SDS011;5342;55.676;13.346;2022-08-01T14:50:43;5.63;;;1.93;;
10588;SDS011;5342;55.676;13.346;2022-08-01T14:53:09;3.17;;;1.33;;
10588;SDS011;5342;55.676;13.346;2022-08-01T14:55:36;2.87;;;1.63;;
10588;SDS011;5342;55.676;13.346;2022-08-01T14:58:02;4.10;;;1.43;;
10588;SDS011;5342;55.676;13.346;2022-08-01T15:00:29;6.03;;;2.17;;
10588;SDS011;5342;55.676;13.346;2022-08-01T15:02:55;3.63;;;1.67;;
10588;SDS011;5342;55.676;13.346;2022-08-01T15:05:22;5.43;;;2.03;;
10588;SDS011;5342;55.676;13.346;2022-08-01T15:07:49;4.37;;;1.80;;
10588;SDS011;5342;55.676;13.346;2022-08-01T15:10:15;6.07;;;1.70;;
10588;SDS011;5342;55.676;13.346;2022-08-01T15:12:42;7.30;;;1.97;;
10588;SDS011;5342;55.676;13.346;2022-08-01T15:15:09;3.87;;;1.40;;
10588;SDS011;5342;55.676;13.346;2022-08-01T15:17:35;4.67;;;1.67;;
10588;SDS011;5342;55.676;13.346;2022-08-01T15:20:03;5.77;;;1.87;;
10588;SDS011;5342;55.676;13.346;2022-08-01T15:22:30;5.57;;;1.73;;
10588;SDS011;5342;55.676;13.346;2022-08-01T15:24:58;3.77;;;1.80;;
10588;SDS011;5342;55.676;13.346;2022-08-01T15:27:25;2.53;;;1.60;;
10588;SDS011;5342;55.676;13.346;2022-08-01T15:29:52;3.77;;;1.70;;
10588;SDS011;5342;55.676;13.346;2022-08-01T15:32:18;7.40;;;1.83;;
10588;SDS011;5342;55.676;13.346;2022-08-01T15:34:45;5.30;;;1.73;;
10588;SDS011;5342;55.676;13.346;2022-08-01T15:37:12;4.17;;;1.80;;
10588;SDS011;5342;55.676;13.346;2022-08-01T15:39:40;4.67;;;1.87;;
10588;SDS011;5342;55.676;13.346;2022-08-01T15:42:11;3.67;;;1.70;;
10588;SDS011;5342;55.676;13.346;2022-08-01T15:44:38;4.57;;;1.80;;
10588;SDS011;5342;55.676;13.346;2022-08-01T15:47:05;4.10;;;2.17;;